Аэропорт: Пулково. Санкт-Петербург

ICAO: ULLI

METAR:
2019/05/26 14:00
ULLI 261400Z 20002MPS 160V230 9999 SCT043 16/07 Q1000 R28R/090060 NOSIG
METAR:
2019/05/26 12:21
TAF TAF ULLI 261059Z 2612/2712 24005MPS 9999 BKN011 
      TEMPO 2612/2615 22003G08MPS 3100 -SHRA BKN011 BKN020CB 
      BECMG 2615/2617 6000 OVC011 
      TEMPO 2617/2704 21003G08MPS 1700 SHRA BR BKN004 BKN020CB 
      BECMG 2704/2707 24006G13MPS 
      TEMPO 2704/2707 4000 -SHRA BR BKN007 BKN020CB